Time;durP1;ratioP1;P1;durP2;ratioP2;P2;SDS_P1;SDS_P2;PMS_P1;PMS_P2;Temp;Humidity;BMP_temperature;BMP_pressure;BME280_temperature;BME280_humidity;BME280_pressure;Samples;Min_cycle;Max_cycle;Signal;HPM_P1;HPM_P2
2022/09/11 00:01:21;;;;;;;3.92;2.08;;;16.10;87.70;;;;;;5072935;28;20032;-15
2022/09/11 00:03:47;;;;;;;9.00;2.35;;;16.00;87.50;;;;;;5073331;28;20103;-14
2022/09/11 00:06:19;;;;;;;8.70;2.20;;;16.00;88.10;;;;;;5073270;28;20380;-15
2022/09/11 00:08:48;;;;;;;5.05;2.10;;;16.00;87.60;;;;;;5073038;28;20025;-15
2022/09/11 00:11:17;;;;;;;2.72;1.33;;;16.00;87.20;;;;;;5072889;28;20025;-15
2022/09/11 00:13:49;;;;;;;4.88;2.17;;;16.00;86.70;;;;;;5073520;28;20479;-16
2022/09/11 00:16:20;;;;;;;2.92;2.03;;;16.10;86.40;;;;;;5073096;28;20047;-15
2022/09/11 00:18:47;;;;;;;3.65;2.00;;;16.10;86.20;;;;;;5072950;28;20028;-15
2022/09/11 00:21:15;;;;;;;4.53;2.22;;;16.20;86.60;;;;;;5073345;28;20029;-14
2022/09/11 00:23:41;;;;;;;3.70;2.20;;;16.20;87.80;;;;;;5073038;28;20066;-16
2022/09/11 00:26:08;;;;;;;4.60;2.80;;;16.20;89.00;;;;;;5071551;28;20110;-14
2022/09/11 00:28:35;;;;;;;3.25;2.30;;;16.30;89.50;;;;;;5072520;28;20504;-14
2022/09/11 00:31:04;;;;;;;2.80;1.95;;;16.20;89.90;;;;;;5072381;28;20033;-15
2022/09/11 00:33:32;;;;;;;3.22;2.05;;;16.10;89.90;;;;;;5072736;28;20054;-15
2022/09/11 00:36:00;;;;;;;2.88;1.88;;;16.10;89.80;;;;;;5073055;28;20021;-16
2022/09/11 00:38:29;;;;;;;2.97;2.13;;;16.00;89.70;;;;;;5072605;28;20024;-15
2022/09/11 00:40:58;;;;;;;4.00;2.30;;;16.00;89.80;;;;;;5072452;28;20488;-14
2022/09/11 00:43:26;;;;;;;4.72;2.28;;;16.00;89.70;;;;;;5072684;28;20060;-14
2022/09/11 00:45:58;;;;;;;3.15;2.33;;;16.00;89.80;;;;;;5076153;28;20541;-14
2022/09/11 00:48:29;;;;;;;5.90;2.33;;;16.00;89.40;;;;;;5076578;28;20016;-15
2022/09/11 00:50:58;;;;;;;5.05;2.40;;;16.00;90.00;;;;;;5076346;28;20369;-16
2022/09/11 00:53:29;;;;;;;2.50;1.88;;;16.00;89.20;;;;;;5076304;28;20028;-15
2022/09/11 00:56:00;;;;;;;1.08;0.95;;;16.00;89.50;;;;;;5076320;28;20025;-15
2022/09/11 00:58:30;;;;;;;1.45;1.35;;;15.90;89.10;;;;;;5076778;28;20462;-14
2022/09/11 01:00:56;;;;;;;1.50;1.20;;;15.80;88.70;;;;;;5074789;28;20540;-16
2022/09/11 01:03:25;;;;;;;2.35;1.60;;;15.70;88.30;;;;;;5076149;28;20472;-15
2022/09/11 01:05:53;;;;;;;2.00;1.40;;;15.70;87.90;;;;;;5076262;28;20387;-16
2022/09/11 01:08:20;;;;;;;2.03;1.58;;;15.70;88.10;;;;;;5076061;28;20024;-13
2022/09/11 01:11:10;;;;;;;2.45;1.55;;;15.70;87.80;;;;;;5075945;28;20111;-13
2022/09/11 01:14:15;;;;;;;3.00;1.77;;;15.80;88.30;;;;;;5076027;28;20037;-14
2022/09/11 01:16:54;;;;;;;3.03;1.52;;;15.80;88.40;;;;;;5064488;28;20452;-15
2022/09/11 01:19:47;;;;;;;4.05;1.50;;;15.70;88.40;;;;;;5076237;28;20035;-14
2022/09/11 01:22:46;;;;;;;1.98;1.50;;;15.70;88.10;;;;;;5075846;28;20376;-15
2022/09/11 01:25:23;;;;;;;1.88;1.10;;;15.70;87.70;;;;;;5075584;28;20369;-16
2022/09/11 01:28:05;;;;;;;1.70;1.60;;;15.60;87.60;;;;;;5076012;28;20430;-13
2022/09/11 01:30:36;;;;;;;1.25;1.15;;;15.70;87.40;;;;;;5075624;28;20040;-17
2022/09/11 01:33:06;;;;;;;1.52;1.38;;;15.70;87.60;;;;;;5075415;28;20021;-16
2022/09/11 01:36:03;;;;;;;1.60;1.50;;;15.70;87.60;;;;;;5074419;28;20139;-15
2022/09/11 01:38:42;;;;;;;2.50;1.83;;;15.70;87.30;;;;;;5075080;28;20043;-15
2022/09/11 01:41:11;;;;;;;1.60;1.50;;;15.70;87.50;;;;;;5075372;28;20348;-15
2022/09/11 01:44:06;;;;;;;2.85;1.70;;;15.80;87.20;;;;;;5075372;28;20079;-14
2022/09/11 01:46:38;;;;;;;2.53;1.65;;;15.80;86.90;;;;;;5072199;28;20503;-15
2022/09/11 01:49:20;;;;;;;2.17;1.60;;;15.90;86.80;;;;;;5075180;28;20028;-14
2022/09/11 01:51:50;;;;;;;2.10;1.85;;;15.90;86.60;;;;;;5075773;28;20036;-15
2022/09/11 01:54:21;;;;;;;3.08;1.70;;;15.90;86.70;;;;;;5075388;28;20480;-15
2022/09/11 01:57:09;;;;;;;2.55;2.30;;;15.90;86.60;;;;;;5074835;28;20024;-15
2022/09/11 01:59:50;;;;;;;2.03;1.65;;;16.00;86.60;;;;;;5075437;28;20024;-14
2022/09/11 02:02:22;;;;;;;3.13;1.90;;;16.00;86.60;;;;;;5075347;28;20035;-15
2022/09/11 02:04:56;;;;;;;2.42;2.10;;;16.00;86.70;;;;;;5075021;28;20016;-15
2022/09/11 02:07:28;;;;;;;1.65;1.52;;;16.00;86.60;;;;;;5075111;28;20085;-14
2022/09/11 02:10:05;;;;;;;1.85;1.73;;;16.00;86.60;;;;;;5074956;28;20029;-15
2022/09/11 02:12:46;;;;;;;1.98;1.52;;;16.10;86.60;;;;;;5074910;28;20387;-15
2022/09/11 02:15:14;;;;;;;3.20;2.20;;;16.10;86.50;;;;;;5074595;28;20050;-15
2022/09/11 02:17:51;;;;;;;4.07;2.40;;;16.10;87.50;;;;;;5074725;28;20024;-15
2022/09/11 02:20:19;;;;;;;2.40;1.67;;;16.10;88.20;;;;;;5074791;28;20027;-14
2022/09/11 02:22:47;;;;;;;4.43;1.98;;;16.10;88.20;;;;;;5074916;28;20109;-15
2022/09/11 02:25:14;;;;;;;1.60;1.45;;;16.10;87.80;;;;;;5074619;28;20039;-15
2022/09/11 02:27:41;;;;;;;3.10;2.05;;;16.00;87.60;;;;;;5074543;28;20507;-15
2022/09/11 02:30:09;;;;;;;2.05;1.52;;;16.00;87.30;;;;;;5074305;28;20044;-15
2022/09/11 02:32:38;;;;;;;1.83;1.65;;;15.90;87.10;;;;;;5074598;28;20020;-15
2022/09/11 02:35:05;;;;;;;3.17;2.10;;;15.90;86.90;;;;;;5074257;28;20024;-14
2022/09/11 02:37:39;;;;;;;3.60;1.90;;;15.90;86.80;;;;;;5073231;28;20020;-15
2022/09/11 02:40:45;;;;;;;3.92;1.88;;;15.90;86.70;;;;;;5074368;28;20024;-15
2022/09/11 02:43:15;;;;;;;3.25;2.00;;;15.90;86.80;;;;;;5073045;28;20420;-16
2022/09/11 02:46:05;;;;;;;3.17;1.80;;;15.80;86.70;;;;;;5074191;28;20033;-15
2022/09/11 02:48:43;;;;;;;2.45;2.22;;;15.80;86.80;;;;;;5074312;28;20035;-15
2022/09/11 02:51:15;;;;;;;2.85;2.28;;;15.80;86.70;;;;;;5074257;28;20107;-15
2022/09/11 02:54:06;;;;;;;4.38;2.00;;;15.80;86.90;;;;;;5074080;28;20028;-15
2022/09/11 02:57:06;;;;;;;3.22;2.30;;;15.80;87.00;;;;;;5074262;28;20028;-14
2022/09/11 02:59:38;;;;;;;2.55;1.65;;;15.70;87.10;;;;;;5074045;28;20501;-15
2022/09/11 03:02:11;;;;;;;2.25;1.77;;;15.70;87.10;;;;;;5073874;28;20056;-15
2022/09/11 03:04:37;;;;;;;1.98;1.58;;;15.60;86.90;;;;;;5074233;28;20028;-15
2022/09/11 03:07:06;;;;;;;3.08;2.15;;;15.60;87.00;;;;;;5072873;28;20590;-15
2022/09/11 03:09:33;;;;;;;3.50;2.15;;;15.60;86.90;;;;;;5074129;28;20021;-15
2022/09/11 03:12:04;;;;;;;3.78;2.10;;;15.60;87.10;;;;;;5074063;28;20025;-14
2022/09/11 03:14:30;;;;;;;3.00;2.00;;;15.50;87.00;;;;;;5073918;28;20035;-14
2022/09/11 03:16:56;;;;;;;4.95;2.00;;;15.50;87.10;;;;;;5073648;28;20028;-15
2022/09/11 03:19:22;;;;;;;2.30;1.98;;;15.50;87.00;;;;;;5073567;28;20028;-15
2022/09/11 03:21:49;;;;;;;4.70;2.08;;;15.50;87.20;;;;;;5073799;28;20024;-14
2022/09/11 03:24:19;;;;;;;2.92;2.42;;;15.50;86.90;;;;;;5073749;28;20480;-15
2022/09/11 03:26:45;;;;;;;1.85;1.58;;;15.40;87.00;;;;;;5073428;28;20082;-16
2022/09/11 03:29:11;;;;;;;3.92;1.90;;;15.40;87.00;;;;;;5072926;28;20520;-15
2022/09/11 03:31:37;;;;;;;2.83;2.38;;;15.50;86.90;;;;;;5073333;28;20040;-15
2022/09/11 03:34:03;;;;;;;3.83;2.72;;;15.40;87.00;;;;;;5072143;28;20020;-15
2022/09/11 03:36:29;;;;;;;12.00;3.05;;;15.50;86.90;;;;;;5072073;28;20438;-16
2022/09/11 03:38:55;;;;;;;4.85;2.80;;;15.50;87.00;;;;;;5073009;28;20073;-15
2022/09/11 03:41:21;;;;;;;4.32;3.08;;;15.40;87.00;;;;;;5073365;28;20017;-15
2022/09/11 03:43:47;;;;;;;4.05;2.78;;;15.40;87.00;;;;;;5073246;28;20025;-15
2022/09/11 03:46:13;;;;;;;5.15;3.50;;;15.40;87.00;;;;;;5073124;28;20056;-15
2022/09/11 03:48:39;;;;;;;3.80;2.35;;;15.30;87.00;;;;;;5073203;28;20069;-15
2022/09/11 03:51:05;;;;;;;4.25;2.22;;;15.40;87.20;;;;;;5073167;28;20115;-15
2022/09/11 03:53:32;;;;;;;2.00;1.80;;;15.30;87.30;;;;;;5073146;28;20123;-15
2022/09/11 03:55:59;;;;;;;2.72;2.20;;;15.30;87.20;;;;;;5073482;28;20024;-14
2022/09/11 03:58:25;;;;;;;2.67;2.00;;;15.30;87.20;;;;;;5073051;28;20032;-14
2022/09/11 04:00:51;;;;;;;3.92;2.50;;;15.30;87.10;;;;;;5073361;28;20430;-15
2022/09/11 04:03:18;;;;;;;2.70;2.15;;;15.20;87.00;;;;;;5072938;28;20146;-15
2022/09/11 04:05:56;;;;;;;3.78;2.17;;;15.20;87.10;;;;;;5073419;28;20020;-15
2022/09/11 04:08:22;;;;;;;3.70;2.20;;;15.10;87.10;;;;;;5072952;28;20495;-15
2022/09/11 04:10:47;;;;;;;3.65;1.98;;;15.10;87.30;;;;;;5072888;28;20025;-17
2022/09/11 04:13:15;;;;;;;3.50;2.17;;;15.00;87.20;;;;;;5072979;28;20040;-15
2022/09/11 04:15:41;;;;;;;2.20;1.90;;;15.10;87.20;;;;;;5073492;28;20020;-15
2022/09/11 04:18:08;;;;;;;7.05;2.50;;;15.00;87.20;;;;;;5073280;28;20037;-15
2022/09/11 04:20:38;;;;;;;4.47;3.00;;;15.00;87.10;;;;;;5076922;28;20020;-15
2022/09/11 04:23:05;;;;;;;3.88;2.30;;;15.00;87.20;;;;;;5077092;28;20024;-15
2022/09/11 04:25:31;;;;;;;4.70;2.53;;;14.90;87.10;;;;;;5076966;28;20028;-16
2022/09/11 04:27:57;;;;;;;3.90;2.40;;;14.90;87.10;;;;;;5076974;28;20024;-15
2022/09/11 04:30:23;;;;;;;7.53;3.55;;;14.90;87.20;;;;;;5076661;28;20044;-17
2022/09/11 04:32:49;;;;;;;5.65;3.00;;;14.90;87.10;;;;;;5075277;28;20028;-16
2022/09/11 04:35:15;;;;;;;5.38;2.90;;;14.90;87.20;;;;;;5076968;28;20029;-16
2022/09/11 04:37:41;;;;;;;3.10;2.67;;;14.90;87.20;;;;;;5075692;28;20039;-15
2022/09/11 04:40:08;;;;;;;3.88;2.25;;;14.90;87.20;;;;;;5076925;28;20099;-15
2022/09/11 04:42:35;;;;;;;2.80;2.05;;;14.90;87.20;;;;;;5076570;28;20107;-15
2022/09/11 04:45:00;;;;;;;3.85;2.20;;;14.90;87.20;;;;;;5076437;28;20576;-14
2022/09/11 04:47:27;;;;;;;2.00;1.88;;;14.90;87.20;;;;;;5076401;28;20036;-14
2022/09/11 04:49:53;;;;;;;2.80;2.42;;;14.80;87.30;;;;;;5076355;28;20395;-14
2022/09/11 04:52:20;;;;;;;2.65;2.10;;;14.80;87.20;;;;;;5076656;28;20353;-15
2022/09/11 04:54:46;;;;;;;2.70;2.20;;;14.80;87.20;;;;;;5076414;28;20441;-15
2022/09/11 04:57:13;;;;;;;2.47;1.80;;;14.80;87.20;;;;;;5076393;28;20029;-15
2022/09/11 04:59:39;;;;;;;3.13;2.10;;;14.90;87.10;;;;;;5076284;28;20078;-16
2022/09/11 05:02:05;;;;;;;3.08;2.20;;;14.90;87.10;;;;;;5076424;28;20024;-15
2022/09/11 05:04:30;;;;;;;4.40;2.60;;;14.90;87.10;;;;;;5076460;28;20433;-15
2022/09/11 05:06:56;;;;;;;6.47;3.92;;;14.90;87.20;;;;;;5075876;28;20032;-15
2022/09/11 05:09:23;;;;;;;6.65;3.63;;;14.80;87.10;;;;;;5076226;28;20028;-15
2022/09/11 05:11:49;;;;;;;3.15;2.28;;;14.90;87.10;;;;;;5075999;28;20032;-15
2022/09/11 05:14:17;;;;;;;4.55;2.47;;;14.90;87.30;;;;;;5076022;28;20511;-14
2022/09/11 05:16:44;;;;;;;3.92;2.47;;;14.90;87.30;;;;;;5075905;28;20074;-15
2022/09/11 05:19:10;;;;;;;5.75;3.05;;;14.90;87.40;;;;;;5075753;28;20391;-14
2022/09/11 05:21:36;;;;;;;5.20;3.20;;;14.90;87.30;;;;;;5075932;28;20092;-15
2022/09/11 05:24:03;;;;;;;7.20;3.70;;;15.00;87.40;;;;;;5076225;28;20103;-13
2022/09/11 05:26:32;;;;;;;7.22;3.47;;;15.00;87.40;;;;;;5075765;28;20021;-13
2022/09/11 05:29:03;;;;;;;3.45;2.50;;;15.00;87.50;;;;;;5075416;28;20530;-15
2022/09/11 05:31:30;;;;;;;5.45;2.63;;;15.10;87.30;;;;;;5074759;28;20029;-15
2022/09/11 05:33:59;;;;;;;6.78;2.65;;;15.20;87.70;;;;;;5076150;28;20032;-15
2022/09/11 05:36:26;;;;;;;3.58;2.30;;;15.30;87.70;;;;;;5075936;28;20028;-14
2022/09/11 05:38:53;;;;;;;5.03;2.90;;;15.40;87.50;;;;;;5074176;28;20111;-16
2022/09/11 05:41:20;;;;;;;7.45;3.03;;;15.40;87.90;;;;;;5075764;28;20017;-15
2022/09/11 05:43:46;;;;;;;4.03;2.70;;;15.50;87.70;;;;;;5075458;28;20024;-16
2022/09/11 05:46:15;;;;;;;4.32;2.78;;;15.60;87.50;;;;;;5075326;28;20430;-16
2022/09/11 05:48:42;;;;;;;4.93;3.00;;;15.80;87.10;;;;;;5075639;28;20036;-16
2022/09/11 05:51:18;;;;;;;4.65;3.17;;;15.90;87.00;;;;;;5075172;28;20397;-15
2022/09/11 05:53:45;;;;;;;7.20;2.70;;;15.90;86.70;;;;;;5075631;28;20028;-14
2022/09/11 05:56:18;;;;;;;6.10;3.25;;;15.90;86.60;;;;;;5075578;28;20055;-13
2022/09/11 05:58:46;;;;;;;2.83;2.22;;;16.00;86.50;;;;;;5075593;28;20023;-14
2022/09/11 06:01:15;;;;;;;8.00;4.50;;;16.00;86.90;;;;;;5074781;28;20025;-14
2022/09/11 06:03:41;;;;;;;6.30;3.30;;;16.10;86.60;;;;;;5073889;28;20021;-15
2022/09/11 06:06:09;;;;;;;12.68;5.35;;;16.20;86.80;;;;;;5075364;28;20036;-14
2022/09/11 06:08:36;;;;;;;3.55;2.65;;;16.30;86.60;;;;;;5075035;28;20024;-13
2022/09/11 06:11:07;;;;;;;9.00;5.82;;;16.40;87.20;;;;;;5074620;28;20039;-15
2022/09/11 06:13:38;;;;;;;7.32;2.90;;;16.40;86.40;;;;;;5075194;28;20088;-14
2022/09/11 06:16:08;;;;;;;3.88;2.42;;;16.50;86.30;;;;;;5074873;28;20024;-15
2022/09/11 06:18:34;;;;;;;3.63;2.65;;;16.60;85.90;;;;;;5074813;28;20040;-14
2022/09/11 06:21:06;;;;;;;3.50;1.90;;;16.70;85.90;;;;;;5074580;28;20020;-15
2022/09/11 06:23:36;;;;;;;5.57;2.67;;;16.80;85.90;;;;;;5074738;28;20025;-15
2022/09/11 06:26:10;;;;;;;4.72;3.00;;;16.90;85.60;;;;;;5074672;28;20024;-15
2022/09/11 06:28:37;;;;;;;5.47;2.00;;;17.00;85.40;;;;;;5074512;28;20131;-14
2022/09/11 06:31:04;;;;;;;2.42;1.80;;;17.20;85.50;;;;;;5074349;28;20426;-14
2022/09/11 06:33:36;;;;;;;5.05;1.73;;;17.20;85.50;;;;;;5073139;28;20471;-14
2022/09/11 06:36:04;;;;;;;3.72;2.17;;;17.40;85.50;;;;;;5074652;28;20032;-14
2022/09/11 06:38:31;;;;;;;2.58;2.03;;;17.50;84.70;;;;;;5074722;28;20119;-14
2022/09/11 06:40:58;;;;;;;2.28;1.90;;;17.60;84.90;;;;;;5074066;28;20364;-15
2022/09/11 06:43:26;;;;;;;4.50;1.85;;;17.70;84.80;;;;;;5073402;28;20119;-15
2022/09/11 06:45:52;;;;;;;3.83;2.60;;;17.90;84.40;;;;;;5074495;28;20031;-14
2022/09/11 06:48:18;;;;;;;5.88;2.30;;;18.10;84.30;;;;;;5074343;28;20095;-14
2022/09/11 06:50:45;;;;;;;2.97;2.08;;;18.20;84.80;;;;;;5074050;28;20078;-14
2022/09/11 06:53:13;;;;;;;2.97;2.00;;;18.40;84.60;;;;;;5074190;28;20036;-13
2022/09/11 06:55:39;;;;;;;4.50;1.90;;;18.60;84.20;;;;;;5074352;28;20029;-13
2022/09/11 06:58:07;;;;;;;2.30;1.98;;;18.90;83.70;;;;;;5074302;28;20025;-14
2022/09/11 07:00:35;;;;;;;2.08;1.88;;;19.00;83.00;;;;;;5074067;28;20019;-13
2022/09/11 07:03:02;;;;;;;2.40;1.85;;;19.30;82.20;;;;;;5073559;28;20462;-13
2022/09/11 07:05:28;;;;;;;2.75;2.08;;;19.40;82.30;;;;;;5074334;28;20018;-14
2022/09/11 07:07:55;;;;;;;3.78;1.60;;;19.60;82.00;;;;;;5072572;28;20570;-14
2022/09/11 07:10:22;;;;;;;2.65;1.70;;;19.80;81.40;;;;;;5073944;28;20429;-14
2022/09/11 07:12:50;;;;;;;3.95;1.80;;;19.90;81.10;;;;;;5073557;28;20055;-14
2022/09/11 07:15:16;;;;;;;2.50;1.73;;;20.00;80.90;;;;;;5073666;28;20028;-13
2022/09/11 07:17:42;;;;;;;1.98;1.85;;;20.20;80.50;;;;;;5073845;28;20031;-13
2022/09/11 07:20:10;;;;;;;4.25;2.20;;;20.40;80.20;;;;;;5073588;28;20035;-13
2022/09/11 07:22:35;;;;;;;3.33;2.10;;;20.40;79.50;;;;;;5073609;28;20028;-13
2022/09/11 07:25:01;;;;;;;1.73;1.58;;;20.60;79.20;;;;;;5073325;28;20025;-13
2022/09/11 07:27:30;;;;;;;2.53;1.73;;;20.80;79.20;;;;;;5073724;28;20035;-14
2022/09/11 07:29:57;;;;;;;2.20;1.40;;;21.00;78.80;;;;;;5073181;28;20052;-14
2022/09/11 07:32:22;;;;;;;1.67;1.40;;;21.10;77.90;;;;;;5073625;28;20029;-13
2022/09/11 07:34:48;;;;;;;1.65;1.50;;;21.30;77.00;;;;;;5073116;28;20499;-14
2022/09/11 07:37:14;;;;;;;4.38;1.50;;;21.40;76.60;;;;;;5073863;28;20029;-14
2022/09/11 07:39:40;;;;;;;1.50;1.40;;;21.60;76.30;;;;;;5073681;28;20035;-14
2022/09/11 07:42:06;;;;;;;2.30;1.40;;;21.80;75.90;;;;;;5073637;28;20032;-13
2022/09/11 07:44:33;;;;;;;1.52;1.15;;;22.00;75.70;;;;;;5073199;28;20086;-13
2022/09/11 07:46:59;;;;;;;2.15;1.52;;;22.20;74.00;;;;;;5072957;28;20029;-13
2022/09/11 07:49:26;;;;;;;5.28;1.38;;;22.40;73.20;;;;;;5073390;28;20054;-14
2022/09/11 07:51:53;;;;;;;3.63;1.45;;;22.50;72.30;;;;;;5073458;28;20032;-13
2022/09/11 07:54:20;;;;;;;1.75;1.30;;;22.60;72.00;;;;;;5073091;28;20033;-13
2022/09/11 07:56:47;;;;;;;1.90;1.10;;;22.70;71.80;;;;;;5073306;28;20032;-13
2022/09/11 07:59:13;;;;;;;3.28;1.20;;;22.90;71.30;;;;;;5073110;28;20032;-13
2022/09/11 08:01:41;;;;;;;3.30;1.35;;;23.10;70.70;;;;;;5071794;28;20048;-14
2022/09/11 08:04:10;;;;;;;1.10;1.10;;;23.40;69.80;;;;;;5073034;28;20028;-14
2022/09/11 08:06:37;;;;;;;2.13;1.48;;;23.80;68.80;;;;;;5073184;28;20059;-14
2022/09/11 08:09:09;;;;;;;4.93;1.25;;;24.10;67.00;;;;;;5072820;28;20499;-13
2022/09/11 08:11:41;;;;;;;4.65;1.40;;;24.40;65.80;;;;;;5073196;28;20024;-13
2022/09/11 08:14:10;;;;;;;1.80;1.63;;;24.80;64.80;;;;;;5072958;28;20025;-14
2022/09/11 08:16:36;;;;;;;2.22;1.50;;;24.90;64.00;;;;;;5073344;28;20031;-14
2022/09/11 08:19:03;;;;;;;2.15;1.30;;;25.10;63.40;;;;;;5072754;28;20032;-14
2022/09/11 08:21:30;;;;;;;1.95;1.42;;;25.10;62.90;;;;;;5073172;28;20070;-13
2022/09/11 08:23:57;;;;;;;1.42;1.20;;;25.10;62.70;;;;;;5072936;28;20040;-14
2022/09/11 08:26:29;;;;;;;1.65;1.40;;;25.10;62.60;;;;;;5072831;28;20480;-13
2022/09/11 08:28:57;;;;;;;2.25;1.20;;;25.20;62.40;;;;;;5072790;28;20057;-15
2022/09/11 08:31:25;;;;;;;4.03;1.13;;;25.40;61.30;;;;;;5072189;28;20028;-13
2022/09/11 08:33:53;;;;;;;1.50;1.20;;;25.50;59.90;;;;;;5073088;28;20029;-14
2022/09/11 08:36:20;;;;;;;1.92;1.00;;;25.60;59.40;;;;;;5073099;28;20024;-14
2022/09/11 08:38:46;;;;;;;1.05;1.02;;;25.70;59.10;;;;;;5071520;28;20032;-13
2022/09/11 08:41:33;;;;;;;0.82;0.82;;;25.80;58.60;;;;;;5072509;28;20028;-13
2022/09/11 08:44:02;;;;;;;1.42;1.00;;;26.20;56.90;;;;;;5072742;28;20031;-14
2022/09/11 08:46:39;;;;;;;2.55;1.00;;;26.50;56.60;;;;;;5072558;28;20032;-13
2022/09/11 08:49:22;;;;;;;2.65;1.10;;;26.90;54.80;;;;;;5072527;28;20464;-14
2022/09/11 08:51:50;;;;;;;4.03;1.30;;;27.00;55.00;;;;;;5072683;28;20033;-14
2022/09/11 08:54:36;;;;;;;2.15;1.10;;;27.20;55.00;;;;;;5072884;28;20104;-14
2022/09/11 08:57:27;;;;;;;1.23;0.98;;;27.30;53.20;;;;;;5072392;28;20021;-14
2022/09/11 09:00:01;;;;;;;1.73;0.93;;;27.30;52.50;;;;;;5072816;28;20021;-14
2022/09/11 09:02:45;;;;;;;1.77;0.85;;;27.30;52.40;;;;;;5072477;28;20029;-14
2022/09/11 09:05:23;;;;;;;1.25;0.88;;;27.20;52.50;;;;;;5072872;28;20040;-15
2022/09/11 09:08:27;;;;;;;1.77;1.15;;;27.40;53.50;;;;;;5076433;28;20032;-14
2022/09/11 09:11:19;;;;;;;1.65;0.82;;;27.70;52.90;;;;;;5041412;28;20496;-14
2022/09/11 09:14:01;;;;;;;1.40;1.08;;;28.00;48.50;;;;;;5076353;28;20484;-14
2022/09/11 09:16:44;;;;;;;1.05;1.05;;;28.10;51.10;;;;;;5076088;28;20081;-15
2022/09/11 09:19:34;;;;;;;1.70;1.10;;;28.40;50.60;;;;;;5075798;28;20028;-15
2022/09/11 09:22:38;;;;;;;1.15;0.80;;;28.60;50.50;;;;;;5076291;28;20473;-15
2022/09/11 09:25:11;;;;;;;1.23;0.75;;;28.90;50.20;;;;;;5052164;28;20052;-14
2022/09/11 09:27:45;;;;;;;0.60;0.60;;;29.20;49.80;;;;;;5076307;28;20055;-15
2022/09/11 09:30:17;;;;;;;0.80;0.80;;;29.50;49.00;;;;;;5075946;28;20056;-15
2022/09/11 09:32:57;;;;;;;0.93;0.80;;;29.60;48.40;;;;;;5075611;28;20115;-14
2022/09/11 09:35:43;;;;;;;0.75;0.75;;;29.60;48.20;;;;;;5075889;28;20618;-15
2022/09/11 09:38:19;;;;;;;1.13;0.70;;;29.70;46.40;;;;;;5075981;28;20020;-15
2022/09/11 09:40:58;;;;;;;2.47;0.90;;;29.90;44.70;;;;;;5075781;28;20495;-15
2022/09/11 09:43:45;;;;;;;0.80;0.80;;;29.90;44.10;;;;;;5075553;28;20507;-14
2022/09/11 09:46:31;;;;;;;2.08;0.82;;;30.00;44.20;;;;;;5075747;28;20446;-14
2022/09/11 09:48:59;;;;;;;0.73;0.55;;;30.00;46.00;;;;;;5075254;28;20029;-13
2022/09/11 09:51:25;;;;;;;1.33;0.80;;;29.90;44.50;;;;;;5075563;28;20039;-16
2022/09/11 09:53:59;;;;;;;1.35;0.77;;;30.00;43.60;;;;;;5075544;28;20383;-15
2022/09/11 09:56:26;;;;;;;0.60;0.60;;;30.20;42.00;;;;;;5075267;28;20472;-15
2022/09/11 09:59:25;;;;;;;1.40;0.55;;;30.40;43.30;;;;;;5075300;28;20038;-15
2022/09/11 10:01:53;;;;;;;1.02;0.60;;;30.50;43.40;;;;;;5013321;28;20463;-15
2022/09/11 10:04:25;;;;;;;0.60;0.60;;;30.70;42.80;;;;;;5013347;28;20033;-15
2022/09/11 10:07:03;;;;;;;1.08;0.70;;;30.90;42.50;;;;;;5013137;28;20081;-14
2022/09/11 10:09:30;;;;;;;6.63;0.82;;;31.10;42.00;;;;;;5013241;28;20026;-14
2022/09/11 10:12:00;;;;;;;0.73;0.70;;;31.10;41.80;;;;;;5013271;28;20144;-14
2022/09/11 10:14:32;;;;;;;0.70;0.70;;;31.20;41.60;;;;;;5013181;28;20136;-14
2022/09/11 10:17:01;;;;;;;1.30;0.70;;;31.20;41.50;;;;;;5012785;28;20501;-15
2022/09/11 10:19:42;;;;;;;0.60;0.60;;;31.40;41.60;;;;;;5013088;28;20485;-15
2022/09/11 10:22:31;;;;;;;0.68;0.68;;;31.40;39.50;;;;;;5012960;28;20029;-15
2022/09/11 10:25:01;;;;;;;0.63;0.63;;;31.60;39.30;;;;;;5012954;28;20041;-14
2022/09/11 10:27:30;;;;;;;1.20;0.70;;;31.90;39.20;;;;;;5012919;28;20018;-15
2022/09/11 10:29:57;;;;;;;0.75;0.70;;;32.10;39.20;;;;;;5012780;28;20120;-14
2022/09/11 10:32:25;;;;;;;1.30;0.60;;;32.40;38.50;;;;;;5012983;28;20398;-14
2022/09/11 10:34:52;;;;;;;0.68;0.60;;;32.60;38.10;;;;;;5012745;28;20105;-15
2022/09/11 10:37:23;;;;;;;1.67;0.70;;;32.90;37.40;;;;;;5021745;28;20041;-14
2022/09/11 10:39:50;;;;;;;0.40;0.40;;;33.10;37.30;;;;;;5074429;28;20025;-14
2022/09/11 10:42:21;;;;;;;1.23;0.60;;;33.30;36.20;;;;;;5073143;28;20032;-14
2022/09/11 10:44:50;;;;;;;0.60;0.50;;;33.50;36.10;;;;;;5074382;28;20028;-14
2022/09/11 10:47:27;;;;;;;1.17;0.60;;;33.70;36.50;;;;;;5074131;28;20029;-15
2022/09/11 10:50:16;;;;;;;2.83;0.80;;;34.00;35.80;;;;;;5074145;28;20064;-15
2022/09/11 10:53:04;;;;;;;1.77;0.80;;;34.20;34.40;;;;;;5064865;28;20123;-15
2022/09/11 10:55:39;;;;;;;0.60;0.60;;;34.40;34.30;;;;;;5074395;28;20407;-15
2022/09/11 10:58:12;;;;;;;0.95;0.70;;;34.50;34.70;;;;;;5074408;28;20028;-14
2022/09/11 11:00:38;;;;;;;0.70;0.70;;;34.70;34.90;;;;;;5074255;28;20028;-15
2022/09/11 11:03:11;;;;;;;1.85;0.80;;;34.90;34.80;;;;;;5073626;28;20039;-15
2022/09/11 11:05:58;;;;;;;0.95;0.95;;;35.10;32.90;;;;;;5074272;28;20472;-15
2022/09/11 11:09:04;;;;;;;1.77;0.88;;;35.20;34.00;;;;;;5074178;28;20032;-15
2022/09/11 11:11:51;;;;;;;1.00;0.70;;;35.20;34.10;;;;;;5073781;28;20033;-15
2022/09/11 11:14:31;;;;;;;0.85;0.70;;;35.30;33.30;;;;;;5074047;28;20127;-15
2022/09/11 11:17:22;;;;;;;1.42;0.88;;;35.10;32.70;;;;;;5073221;28;20033;-15
2022/09/11 11:20:05;;;;;;;1.85;0.70;;;35.00;33.10;;;;;;5073902;28;20044;-15
2022/09/11 11:22:49;;;;;;;1.55;0.88;;;34.90;32.90;;;;;;5073867;28;20024;-15
2022/09/11 11:25:24;;;;;;;0.70;0.70;;;34.70;33.50;;;;;;5074297;28;20044;-15
2022/09/11 11:27:56;;;;;;;2.85;0.90;;;34.50;34.10;;;;;;5073516;28;20028;-15
2022/09/11 11:31:06;;;;;;;0.80;0.73;;;34.40;33.80;;;;;;5073273;28;20419;-14
2022/09/11 11:33:48;;;;;;;0.65;0.65;;;34.00;33.30;;;;;;5073410;28;20516;-14
2022/09/11 11:36:17;;;;;;;0.93;0.90;;;33.70;35.40;;;;;;5073422;28;20039;-15
2022/09/11 11:38:59;;;;;;;0.50;0.50;;;34.00;35.10;;;;;;5073529;28;20569;-15
2022/09/11 11:41:33;;;;;;;1.50;0.80;;;34.50;35.20;;;;;;5073374;28;20020;-15
2022/09/11 11:44:05;;;;;;;1.20;0.60;;;35.00;33.70;;;;;;5073352;28;20422;-15
2022/09/11 11:46:41;;;;;;;0.88;0.50;;;35.50;32.20;;;;;;5073364;28;20068;-15
2022/09/11 11:49:10;;;;;;;0.90;0.82;;;35.90;32.60;;;;;;5073022;28;20025;-15
2022/09/11 11:52:02;;;;;;;0.65;0.52;;;36.20;32.70;;;;;;5073437;28;20032;-15
2022/09/11 11:54:38;;;;;;;0.80;0.80;;;36.40;29.90;;;;;;5066548;28;20037;-15
2022/09/11 11:57:15;;;;;;;0.73;0.73;;;36.60;31.20;;;;;;5072958;28;20021;-15
2022/09/11 12:00:06;;;;;;;1.67;0.70;;;36.90;30.40;;;;;;5073283;28;20082;-14
2022/09/11 12:02:44;;;;;;;1.33;0.65;;;37.20;29.80;;;;;;5073004;28;20097;-15
2022/09/11 12:05:16;;;;;;;2.72;0.90;;;37.50;30.30;;;;;;5072869;28;20025;-15
2022/09/11 12:07:46;;;;;;;0.60;0.60;;;37.60;30.30;;;;;;5055365;28;20036;-14
2022/09/11 12:10:32;;;;;;;1.27;0.45;;;37.60;29.30;;;;;;5072903;28;20072;-14
2022/09/11 12:13:14;;;;;;;1.02;0.70;;;37.70;28.70;;;;;;5072947;28;20120;-14
2022/09/11 12:16:17;;;;;;;1.20;0.60;;;37.70;29.20;;;;;;5073352;28;20116;-15
2022/09/11 12:19:04;;;;;;;1.35;0.80;;;37.90;27.70;;;;;;5073242;28;20267;-14
2022/09/11 12:21:30;;;;;;;1.67;0.70;;;37.90;28.40;;;;;;5073214;28;20048;-15
2022/09/11 12:23:56;;;;;;;0.50;0.50;;;37.50;28.80;;;;;;5072907;28;20384;-14
2022/09/11 12:26:24;;;;;;;1.08;0.60;;;36.90;29.30;;;;;;5072850;28;20036;-15
2022/09/11 12:29:12;;;;;;;0.70;0.68;;;36.40;30.00;;;;;;5072430;28;20060;-14
2022/09/11 12:31:50;;;;;;;0.60;0.60;;;36.00;30.20;;;;;;5073570;28;20480;-14
2022/09/11 12:34:56;;;;;;;1.98;0.70;;;35.40;31.40;;;;;;5073126;28;20029;-15
2022/09/11 12:37:41;;;;;;;1.63;0.70;;;35.40;31.30;;;;;;5072062;28;20028;-15
2022/09/11 12:40:21;;;;;;;0.60;0.60;;;35.60;31.40;;;;;;5075166;28;20035;-15
2022/09/11 12:43:16;;;;;;;1.75;0.63;;;35.70;31.40;;;;;;5077024;28;20063;-14
2022/09/11 12:45:43;;;;;;;0.57;0.55;;;35.60;31.40;;;;;;5076964;28;20032;-14
2022/09/11 12:48:17;;;;;;;1.27;0.73;;;35.70;31.90;;;;;;5076648;28;20073;-14
2022/09/11 12:51:04;;;;;;;1.23;0.50;;;35.90;31.20;;;;;;5076621;28;20036;-15
2022/09/11 12:53:35;;;;;;;1.15;0.77;;;36.00;30.00;;;;;;5076516;28;20100;-15
2022/09/11 12:56:15;;;;;;;0.63;0.60;;;35.70;29.80;;;;;;5076433;28;20044;-15
2022/09/11 12:58:46;;;;;;;0.80;0.68;;;35.40;29.60;;;;;;5076455;28;20028;-15
2022/09/11 13:01:14;;;;;;;0.70;0.70;;;35.70;30.10;;;;;;5076173;28;20067;-15
2022/09/11 13:04:20;;;;;;;0.95;0.70;;;36.10;29.10;;;;;;5076332;28;20089;-15
2022/09/11 13:06:49;;;;;;;0.73;0.68;;;36.40;29.20;;;;;;5073527;28;20039;-15
2022/09/11 13:09:28;;;;;;;1.23;0.80;;;36.60;29.80;;;;;;5076424;28;20055;-15
2022/09/11 13:11:57;;;;;;;1.00;0.80;;;36.60;29.40;;;;;;5076055;28;20024;-15
2022/09/11 13:14:28;;;;;;;0.80;0.80;;;36.80;29.40;;;;;;5076212;28;20074;-24
2022/09/11 13:17:03;;;;;;;0.80;0.80;;;37.00;29.50;;;;;;5075969;28;20039;-14